createdAt,value
2017-05-22T00:01:00.068Z,101795
2017-05-22T00:03:29.034Z,101786
2017-05-22T00:05:58.347Z,101788
2017-05-22T00:08:27.298Z,101788
2017-05-22T00:10:56.353Z,101777
2017-05-22T00:13:25.776Z,101782
2017-05-22T00:15:54.751Z,101779
2017-05-22T00:18:23.734Z,101761
2017-05-22T00:20:53.027Z,101776
2017-05-22T00:23:21.997Z,101777
2017-05-22T00:25:50.992Z,101773
2017-05-22T00:28:20.350Z,101770
2017-05-22T00:30:49.298Z,101768
2017-05-22T00:33:18.247Z,101770
2017-05-22T00:35:47.547Z,101764
2017-05-22T00:38:16.522Z,101764
2017-05-22T00:40:45.483Z,101759
2017-05-22T00:43:14.834Z,101762
2017-05-22T00:45:43.817Z,101763
2017-05-22T00:48:12.819Z,101759
2017-05-22T00:50:42.299Z,101747
2017-05-22T00:53:11.267Z,101750
2017-05-22T00:55:40.229Z,101752
2017-05-22T00:58:09.586Z,101745
2017-05-22T01:00:38.573Z,101745
2017-05-22T01:03:07.537Z,101739
2017-05-22T01:05:36.919Z,101739
2017-05-22T01:08:05.883Z,101739
2017-05-22T01:10:34.857Z,101732
2017-05-22T01:13:04.249Z,101730
2017-05-22T01:15:33.187Z,101735
2017-05-22T01:18:02.290Z,101735
2017-05-22T01:20:31.636Z,101738
2017-05-22T01:23:00.586Z,101738
2017-05-22T01:25:29.555Z,101730
2017-05-22T01:27:58.922Z,101734
2017-05-22T01:30:27.871Z,101738
2017-05-22T01:32:56.835Z,101728
2017-05-22T01:35:26.297Z,101728
2017-05-22T01:37:55.277Z,101725
2017-05-22T01:40:24.214Z,101729
2017-05-22T01:42:53.584Z,101726
2017-05-22T01:45:22.547Z,101732
2017-05-22T01:47:51.535Z,101728
2017-05-22T01:50:20.875Z,101728
2017-05-22T01:52:49.848Z,101731
2017-05-22T01:55:18.863Z,101718
2017-05-22T01:57:47.639Z,101722
2017-05-22T02:00:16.600Z,101718
2017-05-22T02:02:45.562Z,101716
2017-05-22T02:05:14.930Z,101715
2017-05-22T02:07:44.077Z,101709
2017-05-22T02:10:13.042Z,101702
2017-05-22T02:12:42.342Z,101704
2017-05-22T02:15:11.299Z,101706
2017-05-22T02:17:40.251Z,101710
2017-05-22T02:20:09.649Z,101700
2017-05-22T02:22:38.599Z,101698
2017-05-22T02:25:07.557Z,101706
2017-05-22T02:27:36.092Z,101695
2017-05-22T02:30:05.063Z,101691
2017-05-22T02:32:33.263Z,101703
2017-05-22T02:35:02.715Z,101704
2017-05-22T02:37:31.673Z,101701
2017-05-22T02:40:00.655Z,101701
2017-05-22T02:42:30.102Z,101699
2017-05-22T02:44:59.066Z,101708
2017-05-22T02:47:28.022Z,101699
2017-05-22T02:49:57.463Z,101700
2017-05-22T02:52:26.437Z,101684
2017-05-22T02:54:55.395Z,101699
2017-05-22T02:57:24.686Z,101702
2017-05-22T02:59:53.710Z,101702
2017-05-22T03:02:22.668Z,101685
2017-05-22T03:04:52.068Z,101693
2017-05-22T03:07:21.086Z,101696
2017-05-22T03:09:50.045Z,101684
2017-05-22T03:12:19.445Z,101688
2017-05-22T03:14:48.409Z,101688
2017-05-22T03:17:17.331Z,101685
2017-05-22T03:19:46.826Z,101686
2017-05-22T03:22:15.778Z,101690
2017-05-22T03:24:44.748Z,101687
2017-05-22T03:27:14.057Z,101687
2017-05-22T03:29:43.046Z,101690
2017-05-22T03:32:12.057Z,101691
2017-05-22T03:34:41.386Z,101690
2017-05-22T03:37:10.335Z,101692
2017-05-22T03:39:39.346Z,101683
2017-05-22T03:42:08.633Z,101689
2017-05-22T03:44:37.603Z,101683
2017-05-22T03:47:06.564Z,101689
2017-05-22T03:49:35.974Z,101687
2017-05-22T03:52:04.920Z,101693
2017-05-22T03:54:33.860Z,101685
2017-05-22T03:57:03.255Z,101683
2017-05-22T03:59:32.256Z,101688
2017-05-22T04:02:01.207Z,101682
2017-05-22T04:04:30.569Z,101683
2017-05-22T04:06:59.710Z,101678
2017-05-22T04:09:28.666Z,101681
2017-05-22T04:11:58.131Z,101675
2017-05-22T04:14:27.141Z,101675
2017-05-22T04:16:56.204Z,101682
2017-05-22T04:19:25.623Z,101668
2017-05-22T04:21:54.580Z,101669
2017-05-22T04:24:23.550Z,101673
2017-05-22T04:26:52.927Z,101671
2017-05-22T04:29:21.934Z,101667
2017-05-22T04:31:50.871Z,101665
2017-05-22T04:34:20.189Z,101673
2017-05-22T04:36:49.179Z,101669
2017-05-22T04:39:18.155Z,101660
2017-05-22T04:41:47.553Z,101665
2017-05-22T04:44:16.519Z,101661
2017-05-22T04:46:45.469Z,101658
2017-05-22T04:49:14.846Z,101648
2017-05-22T04:51:43.802Z,101650
2017-05-22T04:54:12.796Z,101653
2017-05-22T04:56:42.136Z,101641
2017-05-22T04:59:11.107Z,101648
2017-05-22T05:01:40.053Z,101640
2017-05-22T05:04:09.419Z,101646
2017-05-22T05:06:38.371Z,101645
2017-05-22T05:09:07.331Z,101637
2017-05-22T05:11:36.622Z,101637
2017-05-22T05:14:05.706Z,101635
2017-05-22T05:16:34.667Z,101639
2017-05-22T05:19:03.983Z,101636
2017-05-22T05:21:32.987Z,101633
2017-05-22T05:24:02.064Z,101625
2017-05-22T05:26:31.506Z,101619
2017-05-22T05:29:00.461Z,101626
2017-05-22T05:31:29.427Z,101625
2017-05-22T05:33:58.866Z,101617
2017-05-22T05:36:27.822Z,101620
2017-05-22T05:38:56.769Z,101614
2017-05-22T05:41:26.150Z,101616
2017-05-22T05:43:55.113Z,101604
2017-05-22T05:46:24.193Z,101619
2017-05-22T05:48:53.508Z,101608
2017-05-22T05:51:22.447Z,101622
2017-05-22T05:53:51.462Z,101618
2017-05-22T05:56:20.106Z,101621
2017-05-22T05:58:49.084Z,101622
2017-05-22T06:01:18.035Z,101629
2017-05-22T06:03:47.378Z,101622
2017-05-22T06:06:16.394Z,101616
2017-05-22T06:08:45.349Z,101617
2017-05-22T06:11:14.749Z,101614
2017-05-22T06:13:43.686Z,101613
2017-05-22T06:16:13.042Z,101618
2017-05-22T06:18:42.451Z,101607
2017-05-22T06:21:11.419Z,101615
2017-05-22T06:23:40.379Z,101621
2017-05-22T06:26:09.843Z,101605
2017-05-22T06:28:38.812Z,101614
2017-05-22T06:31:08.331Z,101605
2017-05-22T06:33:37.756Z,101601
2017-05-22T06:36:06.718Z,101599
2017-05-22T06:38:35.674Z,101595
2017-05-22T06:41:04.975Z,101596
2017-05-22T06:43:34.017Z,101601
2017-05-22T06:46:03.035Z,101595
2017-05-22T06:48:32.423Z,101589
2017-05-22T06:51:01.415Z,101594
2017-05-22T06:53:30.384Z,101595
2017-05-22T06:55:59.872Z,101590
2017-05-22T06:58:28.823Z,101585
2017-05-22T07:00:57.788Z,101593
2017-05-22T07:03:27.101Z,101584
2017-05-22T07:05:56.099Z,101587
2017-05-22T07:08:25.135Z,101590
2017-05-22T07:10:54.776Z,101588
2017-05-22T07:13:23.775Z,101591
2017-05-22T07:15:52.731Z,101599
2017-05-22T07:18:22.092Z,101588
2017-05-22T07:20:51.042Z,101591
2017-05-22T07:23:20.007Z,101580
2017-05-22T07:25:49.658Z,101585
2017-05-22T07:28:18.637Z,101581
2017-05-22T07:30:47.642Z,101576
2017-05-22T07:33:16.970Z,101576
2017-05-22T07:35:46.038Z,101568
2017-05-22T07:38:15.083Z,101578
2017-05-22T07:40:44.380Z,101576
2017-05-22T07:43:13.349Z,101568
2017-05-22T07:45:42.335Z,101564
2017-05-22T07:48:11.716Z,101557
2017-05-22T07:50:40.674Z,101563
2017-05-22T07:53:09.650Z,101560
2017-05-22T07:55:39.011Z,101553
2017-05-22T07:58:08.111Z,101558
2017-05-22T08:00:37.086Z,101555
2017-05-22T08:03:06.467Z,101557
2017-05-22T08:05:35.443Z,101556
2017-05-22T08:08:04.440Z,101551
2017-05-22T08:10:33.961Z,101543
2017-05-22T08:13:02.951Z,101548
2017-05-22T08:15:32.127Z,101546
2017-05-22T08:18:01.558Z,101541
2017-05-22T08:20:30.521Z,101549
2017-05-22T08:22:59.498Z,101541
2017-05-22T08:25:28.898Z,101544
2017-05-22T08:27:57.860Z,101544
2017-05-22T08:30:26.831Z,101544
2017-05-22T08:32:56.388Z,101543
2017-05-22T08:35:25.357Z,101540
2017-05-22T08:37:54.345Z,101536
2017-05-22T08:40:23.832Z,101534
2017-05-22T08:42:52.807Z,101530
2017-05-22T08:45:21.842Z,101535
2017-05-22T08:47:51.223Z,101538
2017-05-22T08:50:20.222Z,101533
2017-05-22T08:52:49.220Z,101527
2017-05-22T08:55:18.677Z,101529
2017-05-22T08:57:47.646Z,101528
2017-05-22T09:00:16.611Z,101519
2017-05-22T09:02:45.947Z,101519
2017-05-22T09:05:14.964Z,101515
2017-05-22T09:07:43.924Z,101516
2017-05-22T09:10:13.335Z,101514
2017-05-22T09:12:42.314Z,101514
2017-05-22T09:15:11.288Z,101511
2017-05-22T09:17:40.773Z,101503
2017-05-22T09:20:09.815Z,101498
2017-05-22T09:22:38.780Z,101505
2017-05-22T09:25:08.225Z,101499
2017-05-22T09:27:37.225Z,101507
2017-05-22T09:30:06.243Z,101496
2017-05-22T09:32:35.716Z,101496
2017-05-22T09:35:04.693Z,101503
2017-05-22T09:37:33.650Z,101488
2017-05-22T09:40:02.966Z,101484
2017-05-22T09:42:31.901Z,101486
2017-05-22T09:45:00.863Z,101479
2017-05-22T09:47:30.405Z,101484
2017-05-22T09:49:59.390Z,101464
2017-05-22T09:52:28.355Z,101470
2017-05-22T09:54:57.910Z,101462
2017-05-22T09:57:26.897Z,101460
2017-05-22T09:59:55.836Z,101457
2017-05-22T10:02:25.240Z,101459
2017-05-22T10:04:54.195Z,101459
2017-05-22T10:07:23.170Z,101458
2017-05-22T10:09:52.705Z,101463
2017-05-22T10:12:21.676Z,101458
2017-05-22T10:14:50.650Z,101450
2017-05-22T10:17:20.020Z,101456
2017-05-22T10:19:49.049Z,101459
2017-05-22T10:22:18.046Z,101452
2017-05-22T10:24:47.504Z,101449
2017-05-22T10:27:16.528Z,101441
2017-05-22T10:29:45.499Z,101448
2017-05-22T10:32:14.887Z,101436
2017-05-22T10:34:43.913Z,101435
2017-05-22T10:37:12.964Z,101436
2017-05-22T10:39:42.406Z,101436
2017-05-22T10:42:11.366Z,101437
2017-05-22T10:44:40.545Z,101429
2017-05-22T10:47:09.878Z,101431
2017-05-22T10:49:38.830Z,101424
2017-05-22T10:52:07.862Z,101430
2017-05-22T10:54:37.261Z,101425
2017-05-22T10:57:06.225Z,101428
2017-05-22T10:59:35.176Z,101430
2017-05-22T11:02:04.501Z,101423
2017-05-22T11:04:33.470Z,101425
2017-05-22T11:07:02.488Z,101424
2017-05-22T11:09:31.856Z,101421
2017-05-22T11:12:00.889Z,101423
2017-05-22T11:14:29.846Z,101421
2017-05-22T11:16:59.201Z,101422
2017-05-22T11:19:28.161Z,101418
2017-05-22T11:21:57.139Z,101418
2017-05-22T11:24:26.495Z,101413
2017-05-22T11:26:56.379Z,101404
2017-05-22T11:29:25.375Z,101405
2017-05-22T11:31:54.705Z,101408
2017-05-22T11:34:23.712Z,101393
2017-05-22T11:36:52.713Z,101392
2017-05-22T11:39:22.100Z,101394
2017-05-22T11:41:51.061Z,101394
2017-05-22T11:44:20.020Z,101384
2017-05-22T11:46:49.364Z,101394
2017-05-22T11:49:18.320Z,101385
2017-05-22T11:51:47.290Z,101380
2017-05-22T11:54:16.700Z,101375
2017-05-22T11:56:45.691Z,101383
2017-05-22T11:59:14.670Z,101380
2017-05-22T12:01:44.006Z,101375
2017-05-22T12:04:12.968Z,101375
2017-05-22T12:06:41.918Z,101376
2017-05-22T12:09:11.338Z,101380
2017-05-22T12:11:40.344Z,101375
2017-05-22T12:14:09.317Z,101368
2017-05-22T12:16:38.627Z,101364
2017-05-22T12:19:07.579Z,101360
2017-05-22T12:21:36.538Z,101362
2017-05-22T12:24:06.014Z,101361
2017-05-22T12:26:34.977Z,101351
2017-05-22T12:29:03.966Z,101350
2017-05-22T12:31:33.378Z,101348
2017-05-22T12:34:02.360Z,101346
2017-05-22T12:36:31.336Z,101339
2017-05-22T12:39:00.650Z,101341
2017-05-22T12:41:29.906Z,101339
2017-05-22T12:43:58.884Z,101334
2017-05-22T12:46:28.263Z,101336
2017-05-22T12:48:57.254Z,101338
2017-05-22T12:51:26.254Z,101334
2017-05-22T12:53:55.632Z,101332
2017-05-22T12:56:24.646Z,101329
2017-05-22T12:58:53.599Z,101327
2017-05-22T13:01:23.033Z,101322
2017-05-22T13:03:52.023Z,101318
2017-05-22T13:06:20.992Z,101323
2017-05-22T13:08:50.416Z,101321
2017-05-22T13:11:18.635Z,101323
2017-05-22T13:13:47.603Z,101325
2017-05-22T13:16:16.980Z,101320
2017-05-22T13:18:46.052Z,101312
2017-05-22T13:21:15.039Z,101314
2017-05-22T13:23:44.573Z,101306
2017-05-22T13:26:13.539Z,101310
2017-05-22T13:28:42.510Z,101303
2017-05-22T13:31:11.864Z,101292
2017-05-22T13:33:40.863Z,101293
2017-05-22T13:36:09.889Z,101297
2017-05-22T13:38:39.205Z,101281
2017-05-22T13:41:08.173Z,101282
2017-05-22T13:43:37.142Z,101283
2017-05-22T13:46:06.519Z,101276
2017-05-22T13:48:35.502Z,101281
2017-05-22T13:51:04.456Z,101279
2017-05-22T13:53:33.787Z,101279
2017-05-22T13:56:02.759Z,101283
2017-05-22T13:58:31.837Z,101277
2017-05-22T14:01:01.185Z,101280
2017-05-22T14:03:30.282Z,101282
2017-05-22T14:05:59.246Z,101275
2017-05-22T14:08:28.598Z,101277
2017-05-22T14:10:57.643Z,101270
2017-05-22T14:13:26.630Z,101264
2017-05-22T14:15:56.098Z,101259
2017-05-22T14:18:25.105Z,101259
2017-05-22T14:20:54.090Z,101249
2017-05-22T14:23:23.446Z,101259
2017-05-22T14:25:52.418Z,101256
2017-05-22T14:28:21.380Z,101256
2017-05-22T14:30:50.750Z,101250
2017-05-22T14:33:19.724Z,101247
2017-05-22T14:35:48.715Z,101253
2017-05-22T14:38:18.107Z,101244
2017-05-22T14:40:47.104Z,101236
2017-05-22T14:43:16.057Z,101231
2017-05-22T14:45:46.206Z,101230
2017-05-22T14:48:15.169Z,101225
2017-05-22T14:50:44.132Z,101219
2017-05-22T14:53:13.495Z,101227
2017-05-22T14:55:42.490Z,101219
2017-05-22T14:58:11.469Z,101220
2017-05-22T15:00:40.886Z,101217
2017-05-22T15:03:09.849Z,101226
2017-05-22T15:05:38.851Z,101219
2017-05-22T15:08:08.656Z,101211
2017-05-22T15:10:37.719Z,101216
2017-05-22T15:13:06.696Z,101211
2017-05-22T15:15:36.071Z,101207
2017-05-22T15:18:05.062Z,101209
2017-05-22T15:20:34.239Z,101203
2017-05-22T15:23:03.735Z,101196
2017-05-22T15:25:32.719Z,101206
2017-05-22T15:28:01.711Z,101199
2017-05-22T15:30:31.099Z,101204
2017-05-22T15:33:00.077Z,101201
2017-05-22T15:35:29.035Z,101193
2017-05-22T15:37:58.508Z,101194
2017-05-22T15:40:27.470Z,101185
2017-05-22T15:42:56.462Z,101189
2017-05-22T15:45:25.092Z,101189
2017-05-22T15:47:54.056Z,101188
2017-05-22T15:50:23.046Z,101182
2017-05-22T15:52:52.533Z,101180
2017-05-22T15:55:21.638Z,101174
2017-05-22T15:57:50.618Z,101174
2017-05-22T16:00:20.079Z,101176
2017-05-22T16:02:49.055Z,101173
2017-05-22T16:05:18.035Z,101169
2017-05-22T16:07:47.483Z,101168
2017-05-22T16:10:16.442Z,101164
2017-05-22T16:12:45.407Z,101163
2017-05-22T16:15:14.713Z,101160
2017-05-22T16:17:43.692Z,101149
2017-05-22T16:20:12.676Z,101144
2017-05-22T16:22:41.992Z,101144
2017-05-22T16:25:11.059Z,101141
2017-05-22T16:27:40.023Z,101133
2017-05-22T16:30:09.520Z,101136
2017-05-22T16:32:38.511Z,101130
2017-05-22T16:35:07.469Z,101124
2017-05-22T16:37:36.904Z,101133
2017-05-22T16:40:05.883Z,101132
2017-05-22T16:42:34.876Z,101126
2017-05-22T16:45:04.320Z,101132
2017-05-22T16:47:33.310Z,101133
2017-05-22T16:50:02.351Z,101125
2017-05-22T16:52:31.776Z,101119
2017-05-22T16:55:00.802Z,101122
2017-05-22T16:57:29.773Z,101122
2017-05-22T16:59:59.096Z,101116
2017-05-22T17:02:28.072Z,101116
2017-05-22T17:04:57.121Z,101111
2017-05-22T17:07:26.539Z,101108
2017-05-22T17:09:55.660Z,101115
2017-05-22T17:12:23.865Z,101104
2017-05-22T17:14:53.183Z,101110
2017-05-22T17:17:22.174Z,101115
2017-05-22T17:19:51.180Z,101117
2017-05-22T17:22:20.599Z,101113
2017-05-22T17:24:49.629Z,101106
2017-05-22T17:27:18.589Z,101111
2017-05-22T17:29:48.022Z,101107
2017-05-22T17:32:16.977Z,101106
2017-05-22T17:34:46.391Z,101106
2017-05-22T17:37:15.889Z,101110
2017-05-22T17:39:44.857Z,101102
2017-05-22T17:42:13.850Z,101101
2017-05-22T17:44:43.337Z,101093
2017-05-22T17:47:12.462Z,101088
2017-05-22T17:49:41.428Z,101085
2017-05-22T17:52:10.875Z,101083
2017-05-22T17:54:40.123Z,101087
2017-05-22T17:57:09.107Z,101081
2017-05-22T17:59:38.504Z,101086
2017-05-22T18:02:07.493Z,101073
2017-05-22T18:04:36.493Z,101073
2017-05-22T18:07:05.828Z,101070
2017-05-22T18:09:34.811Z,101076
2017-05-22T18:12:03.816Z,101077
2017-05-22T18:14:33.204Z,101079
2017-05-22T18:17:02.192Z,101077
2017-05-22T18:19:31.196Z,101071
2017-05-22T18:22:00.595Z,101084
2017-05-22T18:24:29.588Z,101088
2017-05-22T18:26:58.583Z,101079
2017-05-22T18:29:27.912Z,101079
2017-05-22T18:31:56.911Z,101079
2017-05-22T18:34:25.916Z,101086
2017-05-22T18:36:55.323Z,101082
2017-05-22T18:39:24.658Z,101076
2017-05-22T18:41:53.638Z,101075
2017-05-22T18:44:23.127Z,101067
2017-05-22T18:46:52.106Z,101068
2017-05-22T18:49:21.128Z,101067
2017-05-22T18:51:50.568Z,101074
2017-05-22T18:54:19.653Z,101074
2017-05-22T18:56:48.663Z,101068
2017-05-22T18:59:18.054Z,101056
2017-05-22T19:01:47.113Z,101064
2017-05-22T19:04:16.100Z,101060
2017-05-22T19:06:45.571Z,101057
2017-05-22T19:09:14.555Z,101063
2017-05-22T19:11:43.555Z,101064
2017-05-22T19:14:12.978Z,101068
2017-05-22T19:16:41.952Z,101066
2017-05-22T19:19:10.941Z,101075
2017-05-22T19:21:40.441Z,101067
2017-05-22T19:24:09.364Z,101078
2017-05-22T19:26:38.378Z,101084
2017-05-22T19:29:07.743Z,101091
2017-05-22T19:31:36.702Z,101092
2017-05-22T19:34:05.668Z,101096
2017-05-22T19:36:35.072Z,101096
2017-05-22T19:39:04.100Z,101094
2017-05-22T19:41:33.106Z,101099
2017-05-22T19:44:02.438Z,101100
2017-05-22T19:46:31.408Z,101093
2017-05-22T19:49:00.405Z,101105
2017-05-22T19:51:29.779Z,101102
2017-05-22T19:53:58.832Z,101100
2017-05-22T19:56:27.828Z,101096
2017-05-22T19:58:57.192Z,101106
2017-05-22T20:01:26.141Z,101117
2017-05-22T20:03:55.124Z,101096
2017-05-22T20:06:23.711Z,101108
2017-05-22T20:08:52.697Z,101112
2017-05-22T20:11:21.665Z,101108
2017-05-22T20:13:51.087Z,101105
2017-05-22T20:16:20.062Z,101106
2017-05-22T20:18:48.247Z,101109
2017-05-22T20:21:17.656Z,101112
2017-05-22T20:23:46.714Z,101107
2017-05-22T20:26:15.741Z,101117
2017-05-22T20:28:45.019Z,101110
2017-05-22T20:31:13.990Z,101111
2017-05-22T20:33:42.959Z,101110
2017-05-22T20:36:12.322Z,101107
2017-05-22T20:38:41.278Z,101108
2017-05-22T20:41:10.275Z,101101
2017-05-22T20:43:39.588Z,101106
2017-05-22T20:46:08.746Z,101099
2017-05-22T20:48:37.738Z,101100
2017-05-22T20:51:07.127Z,101104
2017-05-22T20:53:36.132Z,101101
2017-05-22T20:56:04.362Z,101099
2017-05-22T20:58:33.774Z,101102
2017-05-22T21:01:02.757Z,101090
2017-05-22T21:03:31.723Z,101088
2017-05-22T21:06:01.162Z,101090
2017-05-22T21:08:30.120Z,101095
2017-05-22T21:10:59.108Z,101092
2017-05-22T21:13:28.462Z,101086
2017-05-22T21:15:57.418Z,101095
2017-05-22T21:18:26.518Z,101096
2017-05-22T21:20:55.829Z,101106
2017-05-22T21:23:24.810Z,101091
2017-05-22T21:25:53.836Z,101088
2017-05-22T21:28:23.204Z,101089
2017-05-22T21:30:52.221Z,101083
2017-05-22T21:33:21.218Z,101082
2017-05-22T21:35:50.583Z,101075
2017-05-22T21:38:19.652Z,101076
2017-05-22T21:40:51.980Z,101074
2017-05-22T21:43:22.557Z,101072
2017-05-22T21:45:51.527Z,101077
2017-05-22T21:48:20.878Z,101078
2017-05-22T21:50:49.886Z,101078
2017-05-22T21:53:18.862Z,101073
2017-05-22T21:55:48.275Z,101073
2017-05-22T21:58:17.281Z,101077
2017-05-22T22:00:46.263Z,101068
2017-05-22T22:03:15.607Z,101069
2017-05-22T22:05:44.609Z,101067
2017-05-22T22:08:13.568Z,101061
2017-05-22T22:10:42.951Z,101061
2017-05-22T22:13:11.928Z,101054
2017-05-22T22:15:40.894Z,101049
2017-05-22T22:18:10.356Z,101059
2017-05-22T22:20:39.376Z,101056
2017-05-22T22:23:08.325Z,101059
2017-05-22T22:25:37.706Z,101049
2017-05-22T22:28:06.675Z,101050
2017-05-22T22:30:35.632Z,101056
2017-05-22T22:33:05.093Z,101049
2017-05-22T22:35:34.058Z,101055
2017-05-22T22:38:03.040Z,101045
2017-05-22T22:40:32.364Z,101045
2017-05-22T22:43:01.364Z,101045
2017-05-22T22:45:30.339Z,101036
2017-05-22T22:47:59.941Z,101040
2017-05-22T22:50:28.925Z,101034
2017-05-22T22:52:57.937Z,101031
2017-05-22T22:55:27.345Z,101032
2017-05-22T22:57:55.539Z,101033
2017-05-22T23:00:24.665Z,101026
2017-05-22T23:02:54.019Z,101025
2017-05-22T23:05:23.000Z,101030
2017-05-22T23:07:51.979Z,101029
2017-05-22T23:10:21.377Z,101028
2017-05-22T23:12:50.345Z,101029
2017-05-22T23:15:19.302Z,101009
2017-05-22T23:17:48.804Z,101017
2017-05-22T23:20:17.785Z,101002
2017-05-22T23:22:46.734Z,100995
2017-05-22T23:25:16.031Z,101002
2017-05-22T23:27:45.006Z,101002
2017-05-22T23:30:13.949Z,100992
2017-05-22T23:32:43.466Z,100996
2017-05-22T23:35:12.452Z,100994
2017-05-22T23:37:41.413Z,100992
2017-05-22T23:40:10.706Z,100998
2017-05-22T23:42:39.655Z,100991
2017-05-22T23:45:08.610Z,100993
2017-05-22T23:47:37.938Z,100998
2017-05-22T23:50:06.905Z,101000
2017-05-22T23:52:35.906Z,100991
2017-05-22T23:55:05.332Z,100990
2017-05-22T23:57:34.297Z,100983
